Time;durP1;ratioP1;P1;durP2;ratioP2;P2;SDS_P1;SDS_P2;PMS_P1;PMS_P2;Temp;Humidity;BMP_temperature;BMP_pressure;BME280_temperature;BME280_humidity;BME280_pressure;Samples;Min_cycle;Max_cycle;Signal;HPM_P1;HPM_P2
2021/12/07 00:01:34;;;;;;;47.95;20.75;;;;;;;-0.26;93.16;99420.38;5072496;28;20122;-80
2021/12/07 00:04:01;;;;;;;46.53;20.63;;;;;;;-0.18;93.41;99431.72;5072633;28;20060;-79
2021/12/07 00:06:29;;;;;;;50.53;21.50;;;;;;;-0.17;92.81;99419.34;5072766;28;20575;-79
2021/12/07 00:08:56;;;;;;;47.03;21.23;;;;;;;-0.25;93.68;99418.59;5072646;28;20510;-79
2021/12/07 00:11:27;;;;;;;52.13;21.50;;;;;;;-0.17;93.10;99424.66;5072468;28;20119;-79
2021/12/07 00:13:57;;;;;;;45.38;20.73;;;;;;;-0.28;93.37;99426.59;5072456;28;20048;-78
2021/12/07 00:16:27;;;;;;;48.95;21.80;;;;;;;-0.18;93.90;99430.88;5072062;28;20045;-79
2021/12/07 00:18:57;;;;;;;44.08;20.23;;;;;;;-0.19;93.22;99424.66;5071977;28;20056;-79
2021/12/07 00:21:24;;;;;;;43.53;19.02;;;;;;;-0.14;93.51;99432.56;5075918;28;20052;-79
2021/12/07 00:23:52;;;;;;;49.78;21.30;;;;;;;-0.26;93.58;99423.03;5114989;28;20039;-79
2021/12/07 00:26:19;;;;;;;45.05;19.83;;;;;;;-0.24;93.57;99421.22;5114869;28;20560;-79
2021/12/07 00:28:48;;;;;;;46.42;20.42;;;;;;;-0.19;93.60;99413.19;5114640;28;20043;-79
2021/12/07 00:31:24;;;;;;;47.38;21.42;;;;;;;-0.17;93.45;99422.84;5114467;28;20044;-79
2021/12/07 00:34:07;;;;;;;47.83;21.42;;;;;;;-0.25;93.61;99423.91;5115750;28;20074;-79
2021/12/07 00:36:35;;;;;;;46.03;19.83;;;;;;;-0.19;93.77;99440.59;5115383;28;20394;-79
2021/12/07 00:39:04;;;;;;;47.42;21.48;;;;;;;-0.21;93.17;99447.72;5114845;27;20043;-79
2021/12/07 00:41:32;;;;;;;52.55;22.52;;;;;;;-0.18;93.18;99454.75;5114749;27;20564;-79
2021/12/07 00:44:01;;;;;;;47.45;22.40;;;;;;;-0.28;93.64;99453.16;5114638;28;20462;-79
2021/12/07 00:46:28;;;;;;;52.15;22.02;;;;;;;-0.25;93.23;99461.06;5114167;28;20139;-79
2021/12/07 00:48:57;;;;;;;46.75;20.55;;;;;;;-0.19;94.39;99450.34;5114689;27;20047;-79
2021/12/07 00:51:25;;;;;;;51.38;21.38;;;;;;;-0.14;93.88;99451.16;5114821;28;20043;-79
2021/12/07 00:53:53;;;;;;;49.30;20.38;;;;;;;-0.17;93.50;99448.53;5114492;28;20093;-79
2021/12/07 00:56:21;;;;;;;45.30;21.13;;;;;;;-0.19;93.40;99445.03;5114412;28;20043;-79
2021/12/07 00:58:49;;;;;;;51.25;20.58;;;;;;;-0.12;93.74;99452.00;5114356;28;20035;-79
2021/12/07 01:01:18;;;;;;;45.78;20.10;;;;;;;-0.22;92.97;99453.03;5113933;28;20498;-79
2021/12/07 01:03:45;;;;;;;49.85;21.00;;;;;;;-0.28;93.74;99450.50;5114352;27;20040;-79
2021/12/07 01:06:21;;;;;;;50.78;21.40;;;;;;;-0.23;94.00;99449.53;5114340;28;20058;-80
2021/12/07 01:09:10;;;;;;;50.63;20.40;;;;;;;-0.17;93.88;99453.84;5113865;28;20047;-79
2021/12/07 01:25:44;;;;;;;46.55;20.90;;;;;;;-0.18;93.62;99455.63;5114994;28;20035;-80
2021/12/07 01:28:21;;;;;;;54.45;21.38;;;;;;;-0.20;94.07;99456.56;5113919;28;20044;-79
2021/12/07 01:30:54;;;;;;;53.33;21.70;;;;;;;-0.18;93.99;99455.63;5115226;28;20071;-79
2021/12/07 01:36:20;;;;;;;53.65;21.50;;;;;;;-0.17;93.27;99451.19;5112879;28;20043;-79
2021/12/07 01:42:49;;;;;;;53.42;20.77;;;;;;;-0.20;94.02;99443.28;5097901;28;20055;-79
2021/12/07 01:44:47;;;;;;;56.95;22.17;;;;;;;-0.24;93.25;99444.22;5113133;28;20439;-80
2021/12/07 01:47:31;;;;;;;52.80;22.13;;;;;;;-0.17;93.50;99440.59;5114217;28;20161;-79
2021/12/07 01:50:17;;;;;;;55.83;21.92;;;;;;;-0.17;94.09;99437.94;5114185;27;20040;-79
2021/12/07 01:53:06;;;;;;;49.80;21.40;;;;;;;-0.21;93.89;99437.09;5113759;28;20097;-79
2021/12/07 02:01:17;;;;;;;54.58;22.98;;;;;;;-0.25;94.12;99431.84;5031331;28;20486;-79
2021/12/07 02:03:44;;;;;;;51.58;21.83;;;;;;;-0.24;94.12;99434.50;5030922;28;20059;-79
2021/12/07 02:06:13;;;;;;;49.05;21.35;;;;;;;-0.22;93.74;99427.38;5030891;28;20443;-80
2021/12/07 02:08:41;;;;;;;53.38;20.50;;;;;;;-0.26;93.47;99424.81;5030833;28;20061;-79
2021/12/07 02:11:10;;;;;;;52.45;21.30;;;;;;;-0.22;93.95;99426.50;5030755;28;20049;-79
2021/12/07 02:16:30;;;;;;;53.33;21.77;;;;;;;-0.29;93.81;99431.06;5011198;28;20042;-80
2021/12/07 02:18:57;;;;;;;52.08;21.73;;;;;;;-0.23;94.29;99432.72;5030403;28;20515;-79
2021/12/07 02:21:27;;;;;;;54.38;21.60;;;;;;;-0.21;93.59;99425.59;5030889;28;20053;-79
2021/12/07 02:23:55;;;;;;;57.58;21.65;;;;;;;-0.18;94.09;99436.19;5031261;28;20515;-79
2021/12/07 02:26:23;;;;;;;50.88;21.10;;;;;;;-0.23;94.14;99435.34;5030650;28;20469;-79
2021/12/07 02:28:52;;;;;;;56.55;22.80;;;;;;;-0.25;93.59;99426.56;5030508;28;20092;-79
2021/12/07 02:31:20;;;;;;;53.38;21.40;;;;;;;-0.19;93.78;99431.78;5030666;28;20053;-79
2021/12/07 02:33:48;;;;;;;51.58;21.35;;;;;;;-0.23;93.05;99433.59;5030719;28;20058;-79
2021/12/07 02:36:16;;;;;;;55.63;21.60;;;;;;;-0.25;93.91;99435.41;5099837;28;20133;-79
2021/12/07 02:38:45;;;;;;;51.25;20.83;;;;;;;-0.28;93.85;99438.13;5113250;28;20052;-79
2021/12/07 02:41:12;;;;;;;53.17;21.05;;;;;;;-0.24;94.15;99444.22;5112712;28;20542;-80
2021/12/07 02:43:40;;;;;;;49.35;20.45;;;;;;;-0.22;93.54;99440.66;5113267;28;20044;-79
2021/12/07 02:46:07;;;;;;;49.33;20.92;;;;;;;-0.23;93.32;99438.00;5112920;28;20052;-79
2021/12/07 02:48:35;;;;;;;49.08;20.48;;;;;;;-0.21;93.03;99441.50;5113108;28;20101;-80
2021/12/07 02:51:03;;;;;;;52.53;20.67;;;;;;;-0.24;93.42;99430.97;5114984;28;20492;-79
2021/12/07 02:53:33;;;;;;;47.28;19.77;;;;;;;-0.22;93.30;99434.47;5116944;27;20084;-79
2021/12/07 02:56:04;;;;;;;50.50;20.92;;;;;;;-0.28;93.49;99431.91;5116387;27;20047;-79
2021/12/07 02:58:31;;;;;;;50.67;19.75;;;;;;;-0.24;93.19;99420.34;5117533;28;20051;-79
2021/12/07 03:01:05;;;;;;;50.72;20.40;;;;;;;-0.21;93.63;99420.28;5116706;27;20043;-79
2021/12/07 03:03:38;;;;;;;53.15;20.38;;;;;;;-0.30;93.90;99424.84;5116665;28;20100;-80
2021/12/07 03:06:15;;;;;;;53.35;21.05;;;;;;;-0.25;93.79;99429.22;5117165;28;20145;-79
2021/12/07 03:28:02;;;;;;;58.20;21.17;;;;;;;-0.36;93.59;99456.81;5116265;28;20043;-79
2021/12/07 03:30:29;;;;;;;59.97;21.58;;;;;;;-0.28;93.07;99463.78;5116176;28;20040;-79
2021/12/07 03:32:57;;;;;;;59.33;21.17;;;;;;;-0.33;93.88;99464.72;5116034;28;20497;-79
2021/12/07 03:35:26;;;;;;;64.07;20.83;;;;;;;-0.31;93.55;99473.53;5116033;28;20043;-79
2021/12/07 03:37:54;;;;;;;58.83;20.67;;;;;;;-0.35;93.51;99471.84;5115920;28;20047;-79
2021/12/07 03:40:22;;;;;;;55.47;20.33;;;;;;;-0.33;93.57;99477.16;5115640;28;20442;-80
2021/12/07 03:42:50;;;;;;;60.83;21.52;;;;;;;-0.36;93.23;99479.84;5115992;28;20043;-80
2021/12/07 03:45:19;;;;;;;58.58;20.08;;;;;;;-0.42;93.45;99474.63;5115822;28;20051;-79
2021/12/07 03:47:47;;;;;;;52.03;20.08;;;;;;;-0.46;94.03;99484.44;5115766;28;20112;-79
2021/12/07 03:50:14;;;;;;;54.45;19.60;;;;;;;-0.35;93.12;99494.88;5115644;28;20124;-79
2021/12/07 03:52:42;;;;;;;51.83;19.42;;;;;;;-0.31;92.65;99501.88;5115780;28;20104;-79
2021/12/07 03:55:10;;;;;;;50.72;18.52;;;;;;;-0.38;93.31;99511.72;5115296;28;20489;-79
2021/12/07 03:57:37;;;;;;;51.60;19.48;;;;;;;-0.33;92.82;99514.31;5115545;28;20047;-79
2021/12/07 04:00:07;;;;;;;46.78;18.58;;;;;;;-0.32;92.99;99498.34;5115515;28;20047;-79
2021/12/07 04:02:40;;;;;;;46.78;19.73;;;;;;;-0.48;92.91;99497.72;5114541;28;20047;-79
2021/12/07 04:05:12;;;;;;;45.25;19.25;;;;;;;-0.44;93.08;99502.06;5116712;28;20044;-79
2021/12/07 04:07:40;;;;;;;48.28;18.75;;;;;;;-0.44;93.31;99506.50;5116693;27;20055;-79
2021/12/07 04:10:09;;;;;;;45.88;17.90;;;;;;;-0.44;92.76;99514.47;5114981;28;20517;-79
2021/12/07 04:12:37;;;;;;;54.38;19.50;;;;;;;-0.46;93.13;99513.63;5114924;28;20044;-79
2021/12/07 04:15:05;;;;;;;53.60;21.73;;;;;;;-0.46;92.82;99510.97;5115106;28;20096;-79
2021/12/07 04:17:33;;;;;;;47.58;18.05;;;;;;;-0.39;93.23;99519.72;5115105;28;20051;-79
2021/12/07 04:20:02;;;;;;;49.22;18.90;;;;;;;-0.55;92.67;99512.00;5114672;28;20051;-78
2021/12/07 04:22:30;;;;;;;53.38;17.67;;;;;;;-0.45;93.64;99520.69;5114855;27;20055;-79
2021/12/07 04:24:57;;;;;;;49.55;19.65;;;;;;;-0.44;92.92;99519.78;5114611;28;20171;-79
2021/12/07 04:27:25;;;;;;;50.60;18.73;;;;;;;-0.52;92.48;99525.22;5114758;28;20051;-79
2021/12/07 04:29:52;;;;;;;46.67;18.05;;;;;;;-0.54;92.99;99531.47;5114804;28;20051;-79
2021/12/07 04:32:20;;;;;;;52.42;18.13;;;;;;;-0.49;92.48;99525.16;5114574;28;20043;-79
2021/12/07 04:34:47;;;;;;;46.70;17.42;;;;;;;-0.48;92.30;99524.25;5114665;28;20056;-79
2021/12/07 04:37:16;;;;;;;42.20;17.30;;;;;;;-0.49;92.09;99522.50;5114242;28;20039;-79
2021/12/07 04:39:44;;;;;;;45.08;16.67;;;;;;;-0.58;92.30;99533.28;5114616;28;20439;-79
2021/12/07 04:42:12;;;;;;;51.42;17.65;;;;;;;-0.55;92.67;99533.22;5114513;28;20039;-79
2021/12/07 04:44:46;;;;;;;48.92;17.20;;;;;;;-0.57;92.33;99526.19;5114581;28;20040;-79
2021/12/07 04:47:20;;;;;;;44.88;17.83;;;;;;;-0.49;92.56;99524.28;5115049;28;20108;-79
2021/12/07 04:50:18;;;;;;;46.40;16.10;;;;;;;-0.61;92.21;99531.56;5115424;28;20051;-79
2021/12/07 04:58:16;;;;;;;45.13;17.35;;;;;;;-0.55;91.90;99521.75;5115936;28;20361;-79
2021/12/07 05:00:44;;;;;;;49.63;18.73;;;;;;;-0.61;91.93;99525.34;5114269;28;20558;-79
2021/12/07 05:03:13;;;;;;;49.80;19.23;;;;;;;-0.58;91.82;99525.31;5114098;28;20044;-80
2021/12/07 05:05:46;;;;;;;47.72;16.77;;;;;;;-0.58;92.26;99530.63;5114180;28;20055;-79
2021/12/07 05:08:20;;;;;;;52.30;18.35;;;;;;;-0.62;92.13;99537.72;5115535;28;20051;-79
2021/12/07 05:11:23;;;;;;;38.45;16.20;;;;;;;-0.61;91.87;99538.63;5113730;27;20424;-79
2021/12/07 05:13:57;;;;;;;45.90;16.65;;;;;;;-0.57;92.42;99534.16;5113015;28;20370;-79
2021/12/07 05:23:52;;;;;;;43.30;14.88;;;;;;;-0.65;92.53;99540.44;5113302;28;19923;-79
2021/12/07 05:24:52;;;;;;;45.70;15.65;;;;;;;-0.57;91.63;99529.72;5114122;28;20118;-78
2021/12/07 05:38:20;;;;;;;44.58;16.83;;;;;;;-0.66;91.98;99530.72;5112480;28;20048;-79
2021/12/07 05:40:49;;;;;;;46.25;17.90;;;;;;;-0.70;92.13;99526.38;5113567;28;20048;-79
2021/12/07 05:43:17;;;;;;;43.22;16.90;;;;;;;-0.63;92.32;99530.66;5113660;28;20493;-81
2021/12/07 05:45:44;;;;;;;46.88;17.73;;;;;;;-0.56;91.82;99533.25;5113638;28;20047;-79
2021/12/07 05:48:12;;;;;;;55.10;22.35;;;;;;;-0.56;91.93;99539.44;5113482;28;20051;-79
2021/12/07 05:50:41;;;;;;;44.72;18.05;;;;;;;-0.66;91.83;99538.69;5113099;27;20048;-79
2021/12/07 05:53:11;;;;;;;42.90;17.10;;;;;;;-0.65;92.18;99543.09;5113328;28;20128;-79
2021/12/07 05:55:39;;;;;;;48.22;16.98;;;;;;;-0.66;92.02;99544.00;5115167;28;20043;-79
2021/12/07 05:58:09;;;;;;;47.35;17.38;;;;;;;-0.59;92.04;99545.69;5113481;28;20097;-79
2021/12/07 06:00:41;;;;;;;42.55;16.88;;;;;;;-0.60;92.03;99551.00;5113305;28;20048;-80
2021/12/07 06:03:10;;;;;;;46.50;17.08;;;;;;;-0.62;91.65;99553.66;5114044;28;20058;-80
2021/12/07 06:05:39;;;;;;;40.45;16.15;;;;;;;-0.56;91.81;99558.00;5112997;28;20047;-79
2021/12/07 06:08:07;;;;;;;47.03;17.88;;;;;;;-0.62;91.28;99558.97;5113378;28;20047;-79
2021/12/07 06:10:35;;;;;;;45.95;18.60;;;;;;;-0.67;91.94;99568.75;5113403;27;20044;-80
2021/12/07 06:13:04;;;;;;;50.13;17.75;;;;;;;-0.62;92.26;99564.25;5113361;27;20039;-79
2021/12/07 06:15:34;;;;;;;46.83;18.05;;;;;;;-0.69;92.38;99567.06;5112502;28;20047;-79
2021/12/07 06:18:02;;;;;;;51.25;19.42;;;;;;;-0.61;91.78;99567.81;5113322;28;20416;-79
2021/12/07 06:20:30;;;;;;;43.83;17.25;;;;;;;-0.61;92.25;99566.06;5113591;28;20040;-78
2021/12/07 06:22:58;;;;;;;46.95;19.27;;;;;;;-0.65;91.84;99555.50;5113382;28;20101;-77
2021/12/07 06:25:25;;;;;;;49.38;18.40;;;;;;;-0.64;91.95;99560.75;5113738;28;20047;-78
2021/12/07 06:27:53;;;;;;;51.78;20.20;;;;;;;-0.60;92.36;99572.22;5117357;28;20047;-79
2021/12/07 06:30:20;;;;;;;51.33;20.48;;;;;;;-0.53;91.17;99565.91;5116929;28;20100;-78
2021/12/07 06:32:49;;;;;;;53.33;19.70;;;;;;;-0.63;91.64;99567.81;5117145;27;20480;-79
2021/12/07 06:35:17;;;;;;;45.67;17.88;;;;;;;-0.66;91.88;99561.69;5116669;27;20043;-79
2021/12/07 06:37:44;;;;;;;52.78;20.77;;;;;;;-0.67;91.57;99566.09;5116973;28;20048;-79
2021/12/07 06:40:12;;;;;;;48.70;17.65;;;;;;;-0.61;91.79;99559.84;5116965;28;20431;-79
2021/12/07 06:42:41;;;;;;;47.60;17.55;;;;;;;-0.68;90.90;99564.34;5116932;28;20054;-79
2021/12/07 06:45:10;;;;;;;49.67;19.08;;;;;;;-0.70;91.33;99567.94;5116937;28;20047;-79
2021/12/07 06:47:38;;;;;;;46.97;18.70;;;;;;;-0.66;91.62;99569.66;5116631;28;20048;-78
2021/12/07 06:50:10;;;;;;;45.67;18.42;;;;;;;-0.64;91.80;99576.69;5116894;28;20071;-79
2021/12/07 06:52:38;;;;;;;55.22;22.15;;;;;;;-0.66;91.93;99578.47;5116863;27;20497;-78
2021/12/07 06:55:07;;;;;;;49.22;18.85;;;;;;;-0.68;91.29;99574.97;5116424;28;20044;-79
2021/12/07 06:57:35;;;;;;;53.53;18.73;;;;;;;-0.69;91.71;99570.56;5115738;28;20046;-79
2021/12/07 07:00:04;;;;;;;48.90;18.45;;;;;;;-0.72;92.24;99578.56;5116151;28;20077;-78
2021/12/07 07:02:31;;;;;;;51.63;19.73;;;;;;;-0.74;91.00;99578.59;5115774;28;20035;-79
2021/12/07 07:04:59;;;;;;;53.10;18.75;;;;;;;-0.67;91.47;99570.56;5116344;28;20043;-78
2021/12/07 07:07:28;;;;;;;51.28;19.38;;;;;;;-0.71;91.30;99580.31;5116265;28;20062;-78
2021/12/07 07:09:55;;;;;;;47.20;18.35;;;;;;;-0.65;91.17;99582.88;5115997;28;20561;-79
2021/12/07 07:12:23;;;;;;;50.70;19.13;;;;;;;-0.68;91.59;99582.06;5115276;28;20413;-79
2021/12/07 07:14:50;;;;;;;51.42;19.75;;;;;;;-0.75;91.45;99597.19;5115648;28;20048;-79
2021/12/07 07:17:17;;;;;;;55.95;20.00;;;;;;;-0.74;91.41;99604.25;5114623;28;20051;-79
2021/12/07 07:19:45;;;;;;;67.60;26.45;;;;;;;-0.67;91.29;99607.69;5114982;27;20056;-78
2021/12/07 07:22:13;;;;;;;56.50;19.60;;;;;;;-0.71;91.32;99612.16;5115090;28;20067;-78
2021/12/07 07:24:43;;;;;;;57.67;20.70;;;;;;;-0.71;91.45;99613.94;5115831;27;20108;-79
2021/12/07 07:27:10;;;;;;;53.53;19.25;;;;;;;-0.74;91.49;99622.81;5114515;28;20138;-78
2021/12/07 07:29:38;;;;;;;52.42;18.45;;;;;;;-0.69;91.80;99625.41;5115578;27;21006;-79
2021/12/07 07:32:06;;;;;;;55.10;20.00;;;;;;;-0.78;91.80;99622.00;5114133;28;20551;-79
2021/12/07 07:34:34;;;;;;;62.92;23.73;;;;;;;-0.77;91.50;99625.50;5115994;28;20051;-79
2021/12/07 07:37:01;;;;;;;57.38;20.85;;;;;;;-0.79;91.42;99628.19;5114932;27;20043;-78
2021/12/07 07:39:29;;;;;;;56.50;21.20;;;;;;;-0.74;91.40;99638.72;5115571;27;20511;-78
2021/12/07 07:41:58;;;;;;;56.85;19.80;;;;;;;-0.76;90.99;99636.13;5115683;27;20039;-78
2021/12/07 07:44:25;;;;;;;54.58;20.27;;;;;;;-0.81;91.61;99637.94;5115798;27;20051;-79
2021/12/07 07:46:53;;;;;;;50.67;19.17;;;;;;;-0.71;91.10;99630.72;5115354;28;20443;-79
2021/12/07 07:49:20;;;;;;;48.65;18.35;;;;;;;-0.77;91.59;99629.06;5115456;28;20511;-78
2021/12/07 07:51:48;;;;;;;50.40;19.00;;;;;;;-0.77;91.76;99633.47;5115575;28;20107;-78
2021/12/07 07:54:15;;;;;;;50.17;18.27;;;;;;;-0.75;91.34;99636.97;5115760;27;20044;-78
2021/12/07 07:56:44;;;;;;;47.70;18.35;;;;;;;-0.79;91.51;99635.25;5115775;28;20051;-78
2021/12/07 07:59:13;;;;;;;54.33;20.92;;;;;;;-0.85;91.11;99635.34;5115551;27;20349;-79
2021/12/07 08:01:40;;;;;;;48.63;20.42;;;;;;;-0.82;90.78;99630.00;5115026;27;20089;-78
2021/12/07 08:04:08;;;;;;;51.95;18.67;;;;;;;-0.83;91.29;99633.56;5113686;28;20046;-78
2021/12/07 08:06:35;;;;;;;51.70;18.75;;;;;;;-0.72;91.33;99634.28;5113955;28;20492;-78
2021/12/07 08:09:05;;;;;;;50.22;18.80;;;;;;;-0.82;90.93;99645.91;5114175;28;20096;-79
2021/12/07 08:11:33;;;;;;;51.28;20.27;;;;;;;-0.82;91.67;99645.91;5113779;27;20046;-79
2021/12/07 08:14:01;;;;;;;55.92;21.75;;;;;;;-0.74;90.18;99650.22;5113638;28;20047;-78
2021/12/07 08:16:30;;;;;;;55.78;20.00;;;;;;;-0.71;90.39;99643.13;5113470;28;20484;-78
2021/12/07 08:18:58;;;;;;;54.83;20.27;;;;;;;-0.79;90.08;99640.56;5113196;28;20055;-78
2021/12/07 08:21:26;;;;;;;53.42;20.02;;;;;;;-0.85;90.30;99632.69;5113808;27;20100;-78
2021/12/07 08:23:53;;;;;;;53.08;19.63;;;;;;;-0.79;90.19;99629.97;5113638;28;20048;-78
2021/12/07 08:26:23;;;;;;;54.72;21.63;;;;;;;-0.81;90.36;99640.59;5114857;28;20480;-78
2021/12/07 08:28:51;;;;;;;45.92;19.52;;;;;;;-0.83;90.02;99641.50;5113508;28;20039;-78
2021/12/07 08:31:18;;;;;;;50.22;18.90;;;;;;;-0.85;89.88;99651.25;5113213;27;20043;-78
2021/12/07 08:33:47;;;;;;;51.33;19.63;;;;;;;-0.81;89.31;99637.94;5113565;28;20046;-78
2021/12/07 08:36:15;;;;;;;47.58;18.52;;;;;;;-0.81;90.07;99642.38;5113367;27;20047;-78
2021/12/07 08:38:43;;;;;;;49.75;16.80;;;;;;;-0.75;89.51;99650.25;5110683;28;20035;-78
2021/12/07 08:41:11;;;;;;;47.95;18.30;;;;;;;-0.81;89.99;99650.31;5113256;28;20051;-78
2021/12/07 08:43:40;;;;;;;43.22;17.45;;;;;;;-0.79;90.07;99645.88;5112824;28;20052;-78
2021/12/07 08:46:08;;;;;;;41.50;17.67;;;;;;;-0.81;89.69;99643.25;5113150;27;20039;-78
2021/12/07 08:48:36;;;;;;;43.95;17.60;;;;;;;-0.79;89.55;99651.19;5112835;28;20088;-79
2021/12/07 08:51:06;;;;;;;45.47;18.95;;;;;;;-0.84;88.82;99658.31;5113651;28;20100;-79
2021/12/07 08:53:34;;;;;;;42.60;18.35;;;;;;;-0.83;89.38;99660.94;5113015;28;20043;-79
2021/12/07 09:01:32;;;;;;;46.97;18.55;;;;;;;-0.80;88.48;99660.03;5115117;28;20101;-78
2021/12/07 09:04:01;;;;;;;43.67;17.92;;;;;;;-0.81;88.44;99660.94;5112787;28;20043;-79
2021/12/07 09:06:30;;;;;;;41.95;16.90;;;;;;;-0.88;88.90;99661.00;5112745;28;20047;-78
2021/12/07 09:08:58;;;;;;;44.10;17.30;;;;;;;-0.83;88.97;99644.16;5114351;28;20048;-78
2021/12/07 09:11:26;;;;;;;43.40;16.92;;;;;;;-0.83;88.30;99641.50;5112638;28;20047;-78
2021/12/07 09:13:53;;;;;;;40.78;15.88;;;;;;;-0.86;88.24;99637.09;5112263;28;20507;-78
2021/12/07 09:16:22;;;;;;;46.63;18.33;;;;;;;-0.90;88.64;99641.59;5113398;27;20405;-77
2021/12/07 09:18:50;;;;;;;41.97;17.23;;;;;;;-0.92;88.45;99640.72;5109435;27;20445;-77
2021/12/07 09:21:19;;;;;;;55.33;20.75;;;;;;;-0.84;88.63;99642.41;5110563;28;20047;-78
2021/12/07 09:23:48;;;;;;;56.53;21.50;;;;;;;-0.93;88.15;99644.28;5110018;27;20054;-77
2021/12/07 09:26:16;;;;;;;52.97;20.65;;;;;;;-0.87;88.49;99648.63;5110453;28;20104;-78
2021/12/07 09:28:45;;;;;;;55.08;21.20;;;;;;;-0.92;88.55;99643.38;5110073;28;20043;-78
2021/12/07 09:31:13;;;;;;;49.92;18.95;;;;;;;-0.95;89.00;99639.88;5109915;28;20039;-78
2021/12/07 09:33:42;;;;;;;49.78;19.45;;;;;;;-0.96;88.27;99641.66;5110070;28;20048;-78
2021/12/07 09:36:11;;;;;;;48.90;19.73;;;;;;;-1.00;88.75;99641.72;5110162;28;20058;-78
2021/12/07 09:38:40;;;;;;;55.60;20.95;;;;;;;-0.92;88.80;99642.50;5110043;28;20047;-78
2021/12/07 09:41:10;;;;;;;54.28;22.63;;;;;;;-0.90;88.66;99654.84;5110133;28;20051;-78
2021/12/07 09:43:38;;;;;;;52.58;21.17;;;;;;;-1.04;89.46;99662.06;5111453;27;20047;-78
2021/12/07 09:46:07;;;;;;;50.25;21.10;;;;;;;-1.01;88.65;99654.13;5109834;27;20051;-78
2021/12/07 09:48:35;;;;;;;50.22;19.70;;;;;;;-1.02;88.64;99649.66;5110171;28;20462;-78
2021/12/07 09:51:03;;;;;;;60.53;22.60;;;;;;;-0.94;88.75;99652.25;5109944;27;20474;-78
2021/12/07 09:53:31;;;;;;;56.72;21.20;;;;;;;-1.05;88.98;99652.38;5110273;27;20044;-78
2021/12/07 09:56:00;;;;;;;51.35;20.02;;;;;;;-0.99;88.09;99649.66;5110237;28;20104;-78
2021/12/07 09:58:29;;;;;;;51.38;20.17;;;;;;;-1.03;88.13;99653.22;5109530;27;20047;-78
2021/12/07 10:00:57;;;;;;;48.47;19.00;;;;;;;-0.96;88.21;99638.13;5112330;27;20443;-78
2021/12/07 10:03:24;;;;;;;56.42;20.45;;;;;;;-1.07;88.94;99646.19;5113630;28;20076;-78
2021/12/07 10:05:52;;;;;;;77.65;30.20;;;;;;;-1.05;88.84;99652.38;5114408;28;20047;-78
2021/12/07 10:08:20;;;;;;;78.10;28.92;;;;;;;-1.05;87.53;99657.66;5114459;28;20051;-78
2021/12/07 10:10:51;;;;;;;59.53;25.05;;;;;;;-1.08;88.27;99650.66;5113161;28;20572;-77
2021/12/07 10:13:21;;;;;;;44.65;18.58;;;;;;;-1.07;87.85;99651.50;5097217;28;20119;-78
2021/12/07 10:15:53;;;;;;;45.85;18.63;;;;;;;-1.02;87.45;99654.97;5098205;28;20048;-78
2021/12/07 10:18:25;;;;;;;51.42;20.40;;;;;;;-1.05;87.93;99655.00;5103143;28;20469;-78
2021/12/07 10:20:56;;;;;;;44.75;18.40;;;;;;;-1.10;87.88;99654.19;5117820;28;20122;-78
2021/12/07 10:23:28;;;;;;;56.80;21.77;;;;;;;-1.14;87.60;99656.03;5117687;28;20048;-78
2021/12/07 10:25:57;;;;;;;53.65;21.50;;;;;;;-1.11;87.71;99655.09;5117360;28;20106;-79
2021/12/07 10:28:35;;;;;;;47.78;19.23;;;;;;;-1.07;87.28;99656.81;5117165;27;20472;-79
2021/12/07 10:31:17;;;;;;;60.75;24.33;;;;;;;-1.06;87.88;99670.06;5118678;28;20051;-78
2021/12/07 10:33:47;;;;;;;52.42;21.83;;;;;;;-1.18;88.08;99664.91;5117867;28;20426;-79
2021/12/07 10:36:16;;;;;;;47.88;19.75;;;;;;;-1.14;87.76;99671.03;5117125;27;20044;-79
2021/12/07 10:38:49;;;;;;;56.28;24.20;;;;;;;-1.27;87.89;99680.88;5116769;28;20047;-79
2021/12/07 10:41:21;;;;;;;46.92;20.17;;;;;;;-1.15;87.92;99672.81;5117433;28;20047;-79
2021/12/07 10:43:52;;;;;;;47.53;20.33;;;;;;;-1.27;87.80;99679.13;5117774;28;20047;-79
2021/12/07 10:46:34;;;;;;;50.55;21.25;;;;;;;-1.22;87.88;99676.44;5120225;28;20542;-79
2021/12/07 10:49:30;;;;;;;41.75;17.38;;;;;;;-1.19;87.74;99690.53;5118109;28;20039;-78
2021/12/07 10:52:26;;;;;;;58.75;22.45;;;;;;;-1.22;87.36;99695.00;5117521;28;20048;-79
2021/12/07 10:55:01;;;;;;;54.90;23.20;;;;;;;-1.22;86.88;99705.59;5116579;27;20043;-78
2021/12/07 10:57:31;;;;;;;64.53;27.83;;;;;;;-1.18;86.12;99704.66;5116756;28;20047;-78
2021/12/07 11:00:20;;;;;;;52.95;23.15;;;;;;;-1.33;86.05;99708.34;5116681;28;20492;-77
2021/12/07 11:02:52;;;;;;;51.10;23.33;;;;;;;-1.26;86.00;99704.75;5116666;28;20047;-78
2021/12/07 11:05:21;;;;;;;46.30;20.27;;;;;;;-1.37;87.26;99702.19;5116762;27;20093;-78
2021/12/07 11:07:50;;;;;;;48.50;19.35;;;;;;;-1.41;87.00;99704.91;5116372;28;20044;-79
2021/12/07 11:10:23;;;;;;;44.78;18.33;;;;;;;-1.32;87.34;99699.50;5116174;28;20047;-78
2021/12/07 11:12:59;;;;;;;45.42;18.15;;;;;;;-1.30;87.27;99697.72;5116813;27;20039;-78
2021/12/07 11:15:28;;;;;;;40.23;16.17;;;;;;;-1.34;87.12;99699.50;5118293;28;20400;-79
2021/12/07 11:17:59;;;;;;;38.58;16.65;;;;;;;-1.30;86.44;99692.41;5115818;28;20309;-78
2021/12/07 11:20:28;;;;;;;39.13;16.30;;;;;;;-1.38;86.71;99691.63;5119276;28;20397;-79
2021/12/07 11:22:59;;;;;;;43.50;17.90;;;;;;;-1.42;86.85;99692.53;5116130;28;20047;-78
2021/12/07 11:31:16;;;;;;;42.92;17.35;;;;;;;-1.48;87.02;99693.47;5117192;28;20398;-78
2021/12/07 11:33:46;;;;;;;41.97;16.75;;;;;;;-1.39;87.05;99681.91;5117209;27;20047;-79
2021/12/07 11:36:19;;;;;;;38.03;16.92;;;;;;;-1.39;86.57;99692.50;5115944;28;20051;-79
2021/12/07 11:38:47;;;;;;;42.45;18.20;;;;;;;-1.45;86.64;99688.13;5115420;28;20048;-79
2021/12/07 11:41:16;;;;;;;40.75;16.50;;;;;;;-1.46;86.85;99695.19;5115758;28;20093;-79
2021/12/07 11:43:58;;;;;;;41.30;16.67;;;;;;;-1.49;86.67;99697.88;5115815;28;20062;-79
2021/12/07 11:46:28;;;;;;;41.42;18.23;;;;;;;-1.48;86.18;99693.47;5116955;28;20062;-79
2021/12/07 11:49:14;;;;;;;49.30;21.15;;;;;;;-1.64;86.46;99698.88;5117057;28;20047;-79
2021/12/07 11:51:44;;;;;;;48.30;20.23;;;;;;;-1.53;87.02;99708.53;5115832;28;20434;-79
2021/12/07 11:54:12;;;;;;;40.55;17.38;;;;;;;-1.51;86.46;99704.97;5115312;28;20104;-80
2021/12/07 11:56:41;;;;;;;38.70;16.23;;;;;;;-1.54;86.68;99709.44;5115634;27;20051;-79
2021/12/07 11:59:10;;;;;;;51.45;21.55;;;;;;;-1.52;85.99;99705.84;5115448;28;20412;-79
2021/12/07 12:01:38;;;;;;;40.47;16.70;;;;;;;-1.60;86.37;99707.69;5115532;28;20044;-79
2021/12/07 12:04:05;;;;;;;40.15;16.67;;;;;;;-1.56;86.67;99706.78;5115331;28;20052;-80
2021/12/07 12:06:35;;;;;;;36.35;15.00;;;;;;;-1.59;86.19;99713.88;5115138;28;20039;-80
2021/12/07 12:09:04;;;;;;;34.80;14.82;;;;;;;-1.65;85.99;99712.16;5113122;28;20112;-80
2021/12/07 12:11:37;;;;;;;37.40;16.27;;;;;;;-1.71;85.47;99714.88;5111858;28;20058;-80
2021/12/07 12:14:17;;;;;;;43.80;18.27;;;;;;;-1.77;85.02;99716.69;5112092;28;20055;-81
2021/12/07 12:16:53;;;;;;;42.63;16.10;;;;;;;-1.64;85.50;99725.38;5112029;28;20053;-80
2021/12/07 12:19:32;;;;;;;32.90;14.35;;;;;;;-1.62;85.81;99723.63;5111952;28;20052;-81
2021/12/07 12:22:06;;;;;;;37.67;14.57;;;;;;;-1.69;85.41;99727.19;5111959;28;20052;-80
2021/12/07 12:24:38;;;;;;;37.85;16.05;;;;;;;-1.68;85.25;99717.50;5111897;27;20039;-79
2021/12/07 12:27:08;;;;;;;39.50;17.40;;;;;;;-1.76;85.18;99731.69;5112371;27;20054;-80
2021/12/07 12:29:37;;;;;;;36.75;16.58;;;;;;;-1.79;85.21;99729.06;5113359;27;20051;-80
2021/12/07 12:32:05;;;;;;;45.60;20.30;;;;;;;-1.88;85.40;99725.59;5111846;28;20047;-80
2021/12/07 12:34:35;;;;;;;38.58;18.60;;;;;;;-1.83;84.96;99719.38;5112412;28;20039;-79
2021/12/07 12:37:08;;;;;;;55.63;26.35;;;;;;;-1.88;85.13;99729.09;5114378;27;20051;-80
2021/12/07 12:40:00;;;;;;;52.08;19.77;;;;;;;-1.85;85.47;99723.78;5114492;28;20052;-80
2021/12/07 12:42:36;;;;;;;32.72;15.20;;;;;;;-1.82;85.59;99720.25;5100681;28;20054;-80
2021/12/07 12:45:17;;;;;;;34.25;14.90;;;;;;;-1.84;85.47;99720.25;5115988;27;20104;-80
2021/12/07 12:47:47;;;;;;;36.00;15.55;;;;;;;-1.81;84.89;99728.19;5115640;28;20051;-79
2021/12/07 12:50:20;;;;;;;40.13;16.00;;;;;;;-1.98;85.35;99727.41;5114332;28;20043;-80
2021/12/07 12:52:51;;;;;;;45.47;19.88;;;;;;;-1.90;85.19;99726.47;5116376;28;20046;-80